createdAt,value
2022-09-05T04:30:52.237Z,1004.58
2022-09-05T04:32:10.758Z,1004.62
2022-09-05T04:32:54.782Z,1004.55
2022-09-05T04:33:51.737Z,1004.58
2022-09-05T04:34:51.750Z,1004.53
2022-09-05T04:35:51.807Z,1004.57
2022-09-05T04:36:51.710Z,1004.54
2022-09-05T04:37:51.701Z,1004.56
2022-09-05T04:38:51.737Z,1004.56
2022-09-05T04:39:51.749Z,1004.55
2022-09-05T04:40:51.669Z,1004.60
2022-09-05T04:41:51.658Z,1004.62
2022-09-05T04:42:51.645Z,1004.61
2022-09-05T04:43:51.722Z,1004.64
2022-09-05T04:44:51.669Z,1004.63
2022-09-05T04:45:51.653Z,1004.67
2022-09-05T04:46:52.044Z,1004.67
2022-09-05T04:47:51.596Z,1004.67
2022-09-05T04:48:51.585Z,1004.67
2022-09-05T04:49:51.561Z,1004.65
2022-09-05T04:50:51.594Z,1004.65
2022-09-05T04:52:00.302Z,1004.62
2022-09-05T04:52:52.536Z,1004.63
2022-09-05T04:53:51.577Z,1004.68
2022-09-05T04:54:51.533Z,1004.65
2022-09-05T04:55:51.517Z,1004.70
2022-09-05T04:56:51.501Z,1004.65
2022-09-05T04:57:51.553Z,1004.71
2022-09-05T05:00:29.340Z,1004.70
2022-09-05T05:06:00.542Z,1004.69
2022-09-05T05:06:05.945Z,1004.71
2022-09-05T05:06:10.847Z,1004.72
2022-09-05T05:06:12.051Z,1004.71
2022-09-05T05:06:18.707Z,1004.71
2022-09-05T05:06:19.737Z,1004.67
2022-09-05T05:06:19.741Z,1004.71
2022-09-05T05:06:52.595Z,1004.71
2022-09-05T05:07:51.494Z,1004.73
2022-09-05T05:08:51.587Z,1004.73
2022-09-05T05:09:56.251Z,1004.73
2022-09-05T05:17:40.367Z,1004.73
2022-09-05T05:17:53.747Z,1004.75
2022-09-05T05:18:03.805Z,1004.74
2022-09-05T05:18:03.864Z,1004.76
2022-09-05T05:18:06.173Z,1004.73
2022-09-05T05:18:08.472Z,1004.76
2022-09-05T05:18:13.105Z,1004.76
2022-09-05T05:18:16.108Z,1004.78
2022-09-05T05:19:01.433Z,1004.77
2022-09-05T05:20:39.338Z,1004.79
2022-09-05T05:20:52.332Z,1004.77
2022-09-05T05:21:51.229Z,1004.78
2022-09-05T05:22:51.212Z,1004.79
2022-09-05T05:23:51.201Z,1004.78
2022-09-05T05:24:51.217Z,1004.77
2022-09-05T05:25:51.174Z,1004.79
2022-09-05T05:26:57.096Z,1004.78
2022-09-05T05:27:52.230Z,1004.75
2022-09-05T05:28:51.218Z,1004.80
2022-09-05T05:29:51.134Z,1004.79
2022-09-05T05:30:51.185Z,1004.80
2022-09-05T05:31:51.314Z,1004.80
2022-09-05T05:32:51.125Z,1004.83
2022-09-05T05:33:51.103Z,1004.82
2022-09-05T05:34:51.112Z,1004.86
2022-09-05T05:35:51.072Z,1004.84
2022-09-05T05:36:51.095Z,1004.86
2022-09-05T05:37:51.057Z,1004.88
2022-09-05T05:38:51.067Z,1004.88
2022-09-05T05:39:51.127Z,1004.90
2022-09-05T05:40:51.516Z,1004.90
2022-09-05T05:41:51.009Z,1004.91
2022-09-05T05:42:51.018Z,1004.92
2022-09-05T05:43:50.984Z,1004.90
2022-09-05T05:44:54.519Z,1004.94
2022-09-05T05:45:51.040Z,1004.97
2022-09-05T05:46:50.956Z,1004.94
2022-09-05T05:47:50.936Z,1004.97
2022-09-05T05:48:57.324Z,1004.98
2022-09-05T05:49:51.916Z,1005.00
2022-09-05T05:50:50.908Z,1004.98
2022-09-05T05:52:00.958Z,1004.97
2022-09-05T05:52:51.876Z,1004.97
2022-09-05T05:53:52.504Z,1005.02
2022-09-05T05:54:50.861Z,1004.98
2022-09-05T05:55:53.553Z,1004.99
2022-09-05T05:56:50.849Z,1005.00
2022-09-05T05:57:50.826Z,1005.04
2022-09-05T05:58:50.811Z,1005.10
2022-09-05T05:59:56.452Z,1005.04
2022-09-05T06:00:52.121Z,1005.12
2022-09-05T06:01:51.000Z,1005.09
2022-09-05T06:03:24.607Z,1005.04
2022-09-05T06:03:51.899Z,1005.05
2022-09-05T06:04:50.798Z,1005.03
2022-09-05T06:05:50.764Z,1005.00
2022-09-05T06:06:50.722Z,1004.98
2022-09-05T06:09:35.082Z,1004.97
2022-09-05T06:14:07.876Z,1005.02
2022-09-05T06:14:31.237Z,1004.99
2022-09-05T06:14:52.606Z,1005.01
2022-09-05T06:14:54.845Z,1004.99
2022-09-05T06:15:04.152Z,1004.99
2022-09-05T06:15:04.230Z,1004.98
2022-09-05T06:15:08.826Z,1004.99
2022-09-05T06:15:51.619Z,1004.97
2022-09-05T06:16:50.707Z,1005.03
2022-09-05T06:17:50.643Z,1005.05
2022-09-05T06:18:50.589Z,1005.01
2022-09-05T06:21:01.918Z,1005.01
2022-09-05T06:22:05.834Z,1005.01
2022-09-05T06:22:10.216Z,1005.04
2022-09-05T06:22:51.624Z,1004.96
2022-09-05T06:23:50.532Z,1005.02
2022-09-05T06:24:50.800Z,1005.06
2022-09-05T06:25:50.512Z,1005.11
2022-09-05T06:26:50.503Z,1005.04
2022-09-05T06:28:17.526Z,1005.07
2022-09-05T06:28:51.519Z,1005.09
2022-09-05T06:29:50.530Z,1005.06
2022-09-05T06:30:50.465Z,1005.03
2022-09-05T06:31:51.515Z,1005.00
2022-09-05T06:32:58.481Z,1005.03
2022-09-05T06:33:51.426Z,1005.04
2022-09-05T06:34:50.424Z,1004.99
2022-09-05T06:35:50.731Z,1004.95
2022-09-05T06:36:50.420Z,1004.99
2022-09-05T06:37:50.388Z,1004.95
2022-09-05T06:38:50.401Z,1005.00
2022-09-05T06:39:50.408Z,1004.96
2022-09-05T06:40:50.364Z,1004.99
2022-09-05T06:41:50.361Z,1005.01
2022-09-05T06:42:50.373Z,1005.04
2022-09-05T06:43:50.407Z,1005.05
2022-09-05T06:44:50.308Z,1005.04
2022-09-05T06:45:58.517Z,1005.04
2022-09-05T06:46:55.014Z,1005.01
2022-09-05T06:47:56.902Z,1005.04
2022-09-05T06:49:30.599Z,1005.03
2022-09-05T06:49:51.283Z,1005.06
2022-09-05T06:51:07.766Z,1005.01
2022-09-05T06:52:22.945Z,1005.02
2022-09-05T06:52:51.223Z,1004.99
2022-09-05T06:53:50.228Z,1005.04
2022-09-05T06:54:59.461Z,1005.01
2022-09-05T06:55:51.205Z,1004.99
2022-09-05T06:56:50.213Z,1004.99
2022-09-05T06:57:50.184Z,1004.99
2022-09-05T06:58:50.153Z,1005.03
2022-09-05T06:59:50.171Z,1005.00
2022-09-05T07:00:50.197Z,1005.04
2022-09-05T07:01:50.156Z,1005.02
2022-09-05T07:03:00.037Z,1005.03
2022-09-05T07:03:52.212Z,1005.06
2022-09-05T07:05:24.655Z,1005.02
2022-09-05T07:05:51.150Z,1004.99
2022-09-05T07:07:01.922Z,1005.06
2022-09-05T07:07:51.062Z,1005.06
2022-09-05T07:08:50.048Z,1005.02
2022-09-05T07:09:50.032Z,1005.10
2022-09-05T07:10:50.053Z,1005.11
2022-09-05T07:11:50.083Z,1005.13
2022-09-05T07:12:50.042Z,1005.15
2022-09-05T07:13:49.994Z,1005.15
2022-09-05T07:14:49.990Z,1005.09
2022-09-05T07:15:50.030Z,1005.14
2022-09-05T07:16:50.024Z,1005.16
2022-09-05T07:18:09.469Z,1005.14
2022-09-05T07:18:51.036Z,1005.13
2022-09-05T07:19:49.935Z,1005.17
2022-09-05T07:21:16.342Z,1005.16
2022-09-05T07:21:50.912Z,1005.13
2022-09-05T07:22:49.920Z,1005.19
2022-09-05T07:24:09.021Z,1005.19
2022-09-05T07:24:54.670Z,1005.18
2022-09-05T07:25:49.855Z,1005.24
2022-09-05T07:26:54.167Z,1005.20
2022-09-05T07:28:27.032Z,1005.19
2022-09-05T07:28:50.841Z,1005.19
2022-09-05T07:30:00.777Z,1005.19
2022-09-05T07:30:50.840Z,1005.21
2022-09-05T07:31:49.846Z,1005.20
2022-09-05T07:32:49.798Z,1005.23
2022-09-05T07:33:49.878Z,1005.26
2022-09-05T07:34:49.791Z,1005.28
2022-09-05T07:35:49.822Z,1005.26
2022-09-05T07:36:49.755Z,1005.24
2022-09-05T07:37:50.732Z,1005.25
2022-09-05T07:39:02.358Z,1005.22
2022-09-05T07:39:50.849Z,1005.25
2022-09-05T07:40:49.727Z,1005.21
2022-09-05T07:41:49.714Z,1005.26
2022-09-05T07:43:08.312Z,1005.21
2022-09-05T07:43:50.700Z,1005.22
2022-09-05T07:44:49.651Z,1005.22
2022-09-05T07:45:55.560Z,1005.24
2022-09-05T07:46:50.637Z,1005.27
2022-09-05T07:47:49.621Z,1005.27
2022-09-05T07:48:49.602Z,1005.24
2022-09-05T07:50:17.663Z,1005.27
2022-09-05T07:54:08.964Z,1005.25
2022-09-05T07:56:47.985Z,1005.26
2022-09-05T07:56:52.222Z,1005.33
2022-09-05T07:57:00.912Z,1005.35
2022-09-05T07:57:09.637Z,1005.34
2022-09-05T07:57:10.786Z,1005.28
2022-09-05T07:57:20.866Z,1005.26
2022-09-05T07:57:52.024Z,1005.31
2022-09-05T07:58:49.514Z,1005.32
2022-09-05T07:59:49.493Z,1005.33
2022-09-05T08:00:49.565Z,1005.31
2022-09-05T08:01:49.494Z,1005.31
2022-09-05T08:02:54.578Z,1005.29
2022-09-05T08:03:50.451Z,1005.25
2022-09-05T08:04:49.523Z,1005.25
2022-09-05T08:05:49.441Z,1005.26
2022-09-05T08:07:45.859Z,1005.31
2022-09-05T08:07:51.875Z,1005.21
2022-09-05T08:09:18.550Z,1005.20
2022-09-05T08:10:06.283Z,1005.17
2022-09-05T08:11:24.575Z,1005.21
2022-09-05T08:11:50.392Z,1005.19
2022-09-05T08:13:23.552Z,1005.13
2022-09-05T08:13:50.351Z,1005.19
2022-09-05T08:14:49.336Z,1005.19
2022-09-05T08:16:13.008Z,1005.15
2022-09-05T08:16:50.349Z,1005.19
2022-09-05T08:17:49.327Z,1005.18
2022-09-05T08:18:49.294Z,1005.18
2022-09-05T08:19:49.285Z,1005.16
2022-09-05T08:20:49.299Z,1005.17
2022-09-05T08:21:49.247Z,1005.07
2022-09-05T08:22:52.485Z,1005.08
2022-09-05T08:23:49.234Z,1005.10
2022-09-05T08:24:49.244Z,1005.15
2022-09-05T08:25:57.383Z,1005.15
2022-09-05T08:26:50.228Z,1005.13
2022-09-05T08:27:49.193Z,1005.15
2022-09-05T08:28:49.213Z,1005.14
2022-09-05T08:29:51.257Z,1005.18
2022-09-05T08:30:50.177Z,1005.18
2022-09-05T08:31:49.210Z,1005.18
2022-09-05T08:32:49.170Z,1005.14
2022-09-05T08:33:49.141Z,1005.18
2022-09-05T08:34:49.151Z,1005.18
2022-09-05T08:35:49.126Z,1005.15
2022-09-05T08:36:49.100Z,1005.13
2022-09-05T08:37:49.112Z,1005.08
2022-09-05T08:38:49.074Z,1005.12
2022-09-05T08:39:49.130Z,1005.13
2022-09-05T08:40:50.051Z,1005.13
2022-09-05T08:41:50.328Z,1005.12
2022-09-05T08:43:25.452Z,1005.14
2022-09-05T08:46:35.689Z,1005.17
2022-09-05T08:46:39.460Z,1005.12
2022-09-05T08:46:46.665Z,1005.11
2022-09-05T08:46:50.668Z,1005.13
2022-09-05T08:47:49.085Z,1005.15
2022-09-05T08:48:48.965Z,1005.12
2022-09-05T08:49:48.960Z,1005.13
2022-09-05T08:50:48.951Z,1005.10
2022-09-05T08:51:54.464Z,1005.10
2022-09-05T08:52:49.941Z,1005.12
2022-09-05T08:53:49.040Z,1005.11
2022-09-05T08:54:48.913Z,1005.11
2022-09-05T08:55:48.909Z,1005.11
2022-09-05T08:56:48.881Z,1005.13
2022-09-05T08:57:48.889Z,1005.16
2022-09-05T08:58:48.859Z,1005.14
2022-09-05T09:00:04.302Z,1005.13
2022-09-05T09:00:55.033Z,1005.16
2022-09-05T09:02:38.103Z,1005.11
2022-09-05T09:02:49.876Z,1005.08
2022-09-05T09:03:52.099Z,1005.11
2022-09-05T09:05:02.260Z,1005.09
2022-09-05T09:06:12.623Z,1005.10
2022-09-05T09:07:15.862Z,1005.09
2022-09-05T09:07:52.124Z,1005.07
2022-09-05T09:08:48.748Z,1005.08
2022-09-05T09:09:48.756Z,1005.09
2022-09-05T09:10:48.771Z,1005.06
2022-09-05T09:11:48.727Z,1005.10
2022-09-05T09:12:48.708Z,1005.07
2022-09-05T09:13:48.699Z,1005.03
2022-09-05T09:14:48.711Z,1005.01
2022-09-05T09:15:49.418Z,1005.02
2022-09-05T09:16:48.702Z,1005.01
2022-09-05T09:17:48.665Z,1004.96
2022-09-05T09:18:48.663Z,1004.99
2022-09-05T09:19:48.636Z,1004.98
2022-09-05T09:20:48.653Z,1005.00
2022-09-05T09:21:48.644Z,1004.94
2022-09-05T09:22:48.608Z,1004.92
2022-09-05T09:23:48.612Z,1004.90
2022-09-05T09:24:54.114Z,1004.88
2022-09-05T09:25:49.572Z,1004.91
2022-09-05T09:26:48.582Z,1004.90
2022-09-05T09:28:47.550Z,1004.86
2022-09-05T09:28:51.633Z,1004.90
2022-09-05T09:29:48.531Z,1004.85
2022-09-05T09:30:48.529Z,1004.85
2022-09-05T09:31:48.589Z,1004.83
2022-09-05T09:32:48.516Z,1004.84
2022-09-05T09:33:48.494Z,1004.82
2022-09-05T09:34:49.462Z,1004.86
2022-09-05T09:35:48.460Z,1004.82
2022-09-05T09:36:48.493Z,1004.80
2022-09-05T09:37:50.604Z,1004.79
2022-09-05T09:38:48.427Z,1004.81
2022-09-05T09:39:48.456Z,1004.88
2022-09-05T09:41:00.796Z,1004.80
2022-09-05T09:41:49.429Z,1004.78
2022-09-05T09:42:48.380Z,1004.80
2022-09-05T09:43:52.707Z,1004.70
2022-09-05T09:44:48.360Z,1004.72
2022-09-05T09:45:48.365Z,1004.76
2022-09-05T09:46:48.399Z,1004.75
2022-09-05T09:47:48.350Z,1004.75
2022-09-05T09:48:48.343Z,1004.76
2022-09-05T09:49:48.308Z,1004.76
2022-09-05T09:50:58.264Z,1004.77
2022-09-05T09:51:49.318Z,1004.76
2022-09-05T09:52:48.292Z,1004.82
2022-09-05T09:53:48.267Z,1004.80
2022-09-05T09:54:48.256Z,1004.79
2022-09-05T09:55:48.242Z,1004.79
2022-09-05T09:56:48.235Z,1004.75
2022-09-05T09:57:48.257Z,1004.72
2022-09-05T09:58:48.219Z,1004.71
2022-09-05T09:59:54.077Z,1004.72
2022-09-05T10:00:49.247Z,1004.77
2022-09-05T10:01:48.200Z,1004.69
2022-09-05T10:05:02.878Z,1004.76
2022-09-05T10:10:32.888Z,1004.71
2022-09-05T10:10:39.305Z,1004.73
2022-09-05T10:10:45.728Z,1004.65
2022-09-05T10:10:48.189Z,1004.63
2022-09-05T10:10:49.595Z,1004.65
2022-09-05T10:10:50.600Z,1004.68
2022-09-05T10:11:08.156Z,1004.65
2022-09-05T10:11:22.735Z,1004.63
2022-09-05T10:11:54.073Z,1004.68
2022-09-05T10:12:53.225Z,1004.62
2022-09-05T10:13:49.093Z,1004.63
2022-09-05T10:14:50.757Z,1004.65
2022-09-05T10:15:48.072Z,1004.63
2022-09-05T10:16:48.040Z,1004.58
2022-09-05T10:17:48.036Z,1004.62
2022-09-05T10:18:48.026Z,1004.57
2022-09-05T10:20:57.901Z,1004.57
2022-09-05T10:22:34.014Z,1004.56
2022-09-05T10:22:48.956Z,1004.52
2022-09-05T10:23:47.956Z,1004.54
2022-09-05T10:24:47.956Z,1004.57
2022-09-05T10:25:47.924Z,1004.54
2022-09-05T10:26:47.910Z,1004.55
2022-09-05T10:27:47.915Z,1004.49
2022-09-05T10:28:47.913Z,1004.50
2022-09-05T10:29:47.916Z,1004.48
2022-09-05T10:32:23.186Z,1004.50
2022-09-05T10:33:10.500Z,1004.45
2022-09-05T10:35:05.253Z,1004.44
2022-09-05T10:35:09.321Z,1004.51
2022-09-05T10:35:13.602Z,1004.48
2022-09-05T10:35:48.834Z,1004.55
2022-09-05T10:36:47.830Z,1004.51
2022-09-05T10:37:47.803Z,1004.53
2022-09-05T10:38:47.790Z,1004.48
2022-09-05T10:39:47.837Z,1004.48
2022-09-05T10:41:20.251Z,1004.45
2022-09-05T10:41:48.755Z,1004.47
2022-09-05T10:43:00.451Z,1004.50
2022-09-05T10:43:48.727Z,1004.46
2022-09-05T10:44:47.719Z,1004.43
2022-09-05T10:45:47.732Z,1004.46
2022-09-05T10:46:51.326Z,1004.45
2022-09-05T10:47:47.712Z,1004.44
2022-09-05T10:48:52.421Z,1004.38
2022-09-05T10:49:48.668Z,1004.32
2022-09-05T10:50:47.657Z,1004.35
2022-09-05T10:51:51.741Z,1004.29
2022-09-05T10:52:47.651Z,1004.26
2022-09-05T10:53:47.664Z,1004.19
2022-09-05T10:54:47.621Z,1004.21
2022-09-05T10:55:50.613Z,1004.22
2022-09-05T10:56:47.612Z,1004.21
2022-09-05T10:57:47.591Z,1004.14
2022-09-05T11:00:52.073Z,1004.19
2022-09-05T11:02:19.198Z,1004.21
2022-09-05T11:02:23.408Z,1004.21
2022-09-05T11:02:24.227Z,1004.17
2022-09-05T11:02:52.416Z,1004.18
2022-09-05T11:03:48.576Z,1004.17
2022-09-05T11:04:49.852Z,1004.18
2022-09-05T11:05:47.555Z,1004.14
2022-09-05T11:06:47.493Z,1004.10
2022-09-05T11:07:47.505Z,1004.07
2022-09-05T11:08:47.469Z,1004.07
2022-09-05T11:09:47.468Z,1004.05
2022-09-05T11:10:48.455Z,1004.06
2022-09-05T11:11:47.458Z,1004.04
2022-09-05T11:12:47.450Z,1004.06
2022-09-05T11:13:48.418Z,1004.01
2022-09-05T11:14:47.443Z,1004.01
2022-09-05T11:15:57.268Z,1004.04
2022-09-05T11:16:48.448Z,1004.02
2022-09-05T11:17:47.394Z,1004.00
2022-09-05T11:18:55.526Z,1003.97
2022-09-05T11:19:48.368Z,1003.97
2022-09-05T11:20:47.354Z,1003.98
2022-09-05T11:21:47.339Z,1003.96
2022-09-05T11:22:47.343Z,1003.96
2022-09-05T11:23:48.778Z,1003.94
2022-09-05T11:24:48.328Z,1003.93
2022-09-05T11:25:47.302Z,1003.89
2022-09-05T11:26:52.949Z,1003.93
2022-09-05T11:27:48.296Z,1003.87
2022-09-05T11:28:53.752Z,1003.87
2022-09-05T11:29:48.298Z,1003.83
2022-09-05T11:30:47.355Z,1003.83
2022-09-05T11:32:22.465Z,1003.86
2022-09-05T11:36:04.001Z,1003.84
2022-09-05T11:39:47.416Z,1003.80
2022-09-05T11:39:47.563Z,1003.80
2022-09-05T11:39:55.069Z,1003.80
2022-09-05T11:40:02.467Z,1003.79
2022-09-05T11:40:08.918Z,1003.85
2022-09-05T11:40:09.885Z,1003.81
2022-09-05T11:40:31.292Z,1003.84
2022-09-05T11:41:04.955Z,1003.85
2022-09-05T11:41:48.257Z,1003.86
2022-09-05T11:42:48.840Z,1003.86
2022-09-05T11:43:47.109Z,1003.87
2022-09-05T11:44:47.108Z,1003.87
2022-09-05T11:45:47.103Z,1003.86
2022-09-05T11:46:47.087Z,1003.85
2022-09-05T11:47:48.115Z,1003.86
2022-09-05T11:48:53.049Z,1003.80
2022-09-05T11:49:48.044Z,1003.80
2022-09-05T11:50:47.041Z,1003.86
2022-09-05T11:51:47.052Z,1003.85
2022-09-05T11:52:47.034Z,1003.88
2022-09-05T11:53:47.043Z,1003.84
2022-09-05T11:54:47.008Z,1003.82
2022-09-05T11:55:47.016Z,1003.79
2022-09-05T11:56:46.985Z,1003.82
2022-09-05T11:57:47.020Z,1003.82
2022-09-05T11:58:47.311Z,1003.80
2022-09-05T11:59:46.978Z,1003.87
2022-09-05T12:00:46.934Z,1003.77
2022-09-05T12:01:46.931Z,1003.82
2022-09-05T12:02:46.978Z,1003.83
2022-09-05T12:03:59.304Z,1003.83
2022-09-05T12:05:50.629Z,1003.83
2022-09-05T12:05:59.349Z,1003.77
2022-09-05T12:06:49.597Z,1003.74
2022-09-05T12:07:46.866Z,1003.72
2022-09-05T12:08:46.886Z,1003.71
2022-09-05T12:09:47.863Z,1003.68
2022-09-05T12:10:48.368Z,1003.69
2022-09-05T12:11:46.864Z,1003.71
2022-09-05T12:12:46.815Z,1003.71
2022-09-05T12:13:46.802Z,1003.73
2022-09-05T12:14:49.355Z,1003.72
2022-09-05T12:15:53.425Z,1003.69
2022-09-05T12:16:47.842Z,1003.69
2022-09-05T12:17:46.780Z,1003.70
2022-09-05T12:18:46.747Z,1003.71
2022-09-05T12:19:46.770Z,1003.74
2022-09-05T12:20:46.751Z,1003.71
2022-09-05T12:21:46.741Z,1003.63
2022-09-05T12:22:46.722Z,1003.62
2022-09-05T12:24:24.742Z,1003.65
2022-09-05T12:25:27.156Z,1003.65
2022-09-05T12:27:41.539Z,1003.66
2022-09-05T12:27:44.988Z,1003.66
2022-09-05T12:27:48.113Z,1003.62
2022-09-05T12:29:29.263Z,1003.67
2022-09-05T12:29:52.262Z,1003.62
2022-09-05T12:31:08.470Z,1003.57
2022-09-05T12:33:40.085Z,1003.54
2022-09-05T12:35:17.245Z,1003.52
2022-09-05T12:36:03.951Z,1003.57
2022-09-05T12:36:05.574Z,1003.58
2022-09-05T12:36:09.836Z,1003.57
2022-09-05T12:40:08.663Z,1003.51
2022-09-05T12:40:46.198Z,1003.50
2022-09-05T12:41:36.239Z,1003.51
2022-09-05T12:41:38.352Z,1003.53
2022-09-05T12:41:43.803Z,1003.49
2022-09-05T12:42:13.760Z,1003.54
2022-09-05T12:42:56.157Z,1003.59
2022-09-05T12:44:38.433Z,1003.57
2022-09-05T12:44:48.178Z,1003.57
2022-09-05T12:45:46.623Z,1003.50
2022-09-05T12:46:46.652Z,1003.51
2022-09-05T12:47:46.496Z,1003.52
2022-09-05T12:48:46.453Z,1003.53
2022-09-05T12:49:47.352Z,1003.52
2022-09-05T12:50:47.439Z,1003.55
2022-09-05T12:51:47.710Z,1003.49
2022-09-05T12:52:46.861Z,1003.50
2022-09-05T12:53:46.396Z,1003.50
2022-09-05T12:54:46.401Z,1003.47
2022-09-05T12:55:53.728Z,1003.51
2022-09-05T12:59:15.968Z,1003.47
2022-09-05T13:02:57.033Z,1003.47
2022-09-05T13:03:00.956Z,1003.47
2022-09-05T13:03:02.328Z,1003.49
2022-09-05T13:03:05.043Z,1003.45
2022-09-05T13:03:05.296Z,1003.45
2022-09-05T13:03:06.314Z,1003.46
2022-09-05T13:04:13.357Z,1003.40
2022-09-05T13:05:01.118Z,1003.39
2022-09-05T13:05:47.349Z,1003.38
2022-09-05T13:06:46.357Z,1003.42
2022-09-05T13:07:46.245Z,1003.40
2022-09-05T13:08:46.251Z,1003.38
2022-09-05T13:12:07.422Z,1003.41
2022-09-05T13:13:07.919Z,1003.37
2022-09-05T13:14:49.570Z,1003.32
2022-09-05T13:14:54.760Z,1003.33
2022-09-05T13:14:56.313Z,1003.31
2022-09-05T13:15:06.702Z,1003.33
2022-09-05T13:15:47.204Z,1003.32
2022-09-05T13:16:46.163Z,1003.28
2022-09-05T13:17:46.142Z,1003.31
2022-09-05T13:18:46.129Z,1003.30
2022-09-05T13:19:46.114Z,1003.29
2022-09-05T13:20:46.126Z,1003.29
2022-09-05T13:21:46.122Z,1003.27
2022-09-05T13:22:48.624Z,1003.32
2022-09-05T13:23:50.450Z,1003.30
2022-09-05T13:24:46.071Z,1003.25
2022-09-05T13:25:46.039Z,1003.24
2022-09-05T13:26:46.064Z,1003.22
2022-09-05T13:27:46.059Z,1003.17
2022-09-05T13:28:46.048Z,1003.19
2022-09-05T13:30:23.862Z,1003.14
2022-09-05T13:36:19.286Z,1003.10
2022-09-05T13:37:53.838Z,1003.07
2022-09-05T13:37:59.206Z,1003.05
2022-09-05T13:38:02.866Z,1003.04
2022-09-05T13:38:14.431Z,1002.97
2022-09-05T13:38:21.158Z,1003.01
2022-09-05T13:38:21.158Z,1003.03
2022-09-05T13:38:30.785Z,1003.00
2022-09-05T13:38:48.566Z,1002.91
2022-09-05T13:39:46.010Z,1002.94
2022-09-05T13:40:46.092Z,1002.88
2022-09-05T13:41:45.877Z,1002.98
2022-09-05T13:42:45.865Z,1003.00
2022-09-05T13:43:45.848Z,1002.97
2022-09-05T13:44:45.840Z,1002.93
2022-09-05T13:45:45.868Z,1002.92
2022-09-05T13:46:45.886Z,1002.92
2022-09-05T13:47:45.817Z,1002.86
2022-09-05T13:49:46.786Z,1002.90
2022-09-05T13:50:45.781Z,1002.86
2022-09-05T13:51:45.788Z,1002.87
2022-09-05T13:52:45.765Z,1002.85
2022-09-05T13:53:45.772Z,1002.83
2022-09-05T13:54:50.791Z,1002.85
2022-09-05T13:55:46.729Z,1002.82
2022-09-05T13:56:45.726Z,1002.80
2022-09-05T13:57:45.725Z,1002.85
2022-09-05T13:58:57.063Z,1002.83
2022-09-05T13:59:46.734Z,1002.82
2022-09-05T14:00:45.690Z,1002.81
2022-09-05T14:02:26.422Z,1002.86
2022-09-05T14:03:46.729Z,1002.85
2022-09-05T14:05:46.680Z,1002.83
2022-09-05T14:06:48.256Z,1002.82
2022-09-05T14:07:46.306Z,1002.80
2022-09-05T14:08:45.735Z,1002.81
2022-09-05T14:09:45.594Z,1002.79
2022-09-05T14:10:45.578Z,1002.79
2022-09-05T14:11:45.601Z,1002.82
2022-09-05T14:12:45.562Z,1002.78
2022-09-05T14:13:45.544Z,1002.78
2022-09-05T14:15:52.258Z,1002.77
2022-09-05T14:16:54.324Z,1002.74
2022-09-05T14:17:53.958Z,1002.71
2022-09-05T14:18:50.696Z,1002.72
2022-09-05T14:19:46.471Z,1002.68
2022-09-05T14:20:49.740Z,1002.66
2022-09-05T14:21:45.460Z,1002.64
2022-09-05T14:22:45.489Z,1002.63
2022-09-05T14:23:45.488Z,1002.61
2022-09-05T14:24:45.450Z,1002.67
2022-09-05T14:25:45.419Z,1002.62
2022-09-05T14:26:45.437Z,1002.59
2022-09-05T14:27:45.392Z,1002.59
2022-09-05T14:28:46.685Z,1002.58
2022-09-05T14:29:45.385Z,1002.57
2022-09-05T14:32:25.249Z,1002.56
2022-09-05T14:37:40.300Z,1002.53
2022-09-05T14:37:41.898Z,1002.48
2022-09-05T14:37:43.661Z,1002.50
2022-09-05T14:37:46.743Z,1002.55
2022-09-05T14:37:50.571Z,1002.57
2022-09-05T14:37:52.009Z,1002.54
2022-09-05T14:38:00.773Z,1002.51
2022-09-05T14:38:46.365Z,1002.46
2022-09-05T14:39:45.518Z,1002.48
2022-09-05T14:40:45.309Z,1002.44
2022-09-05T14:42:02.207Z,1002.48
2022-09-05T14:42:46.241Z,1002.46
2022-09-05T14:43:45.216Z,1002.44
2022-09-05T14:44:45.215Z,1002.49
2022-09-05T14:45:46.083Z,1002.43
2022-09-05T14:46:45.304Z,1002.45
2022-09-05T14:47:47.462Z,1002.45
2022-09-05T14:48:45.664Z,1002.42
2022-09-05T14:49:46.444Z,1002.41
2022-09-05T14:50:46.252Z,1002.39
2022-09-05T14:51:45.138Z,1002.43
2022-09-05T14:52:45.116Z,1002.36
2022-09-05T14:54:01.227Z,1002.36
2022-09-05T14:55:46.082Z,1002.40
2022-09-05T14:58:00.491Z,1002.41
2022-09-05T15:02:42.281Z,1002.40
2022-09-05T15:02:42.336Z,1002.38
2022-09-05T15:02:51.032Z,1002.46
2022-09-05T15:02:51.034Z,1002.43
2022-09-05T15:02:57.312Z,1002.42
2022-09-05T15:03:00.474Z,1002.41
2022-09-05T15:04:45.985Z,1002.44
2022-09-05T15:05:44.977Z,1002.43
2022-09-05T15:06:44.999Z,1002.39
2022-09-05T15:07:44.953Z,1002.40
2022-09-05T15:12:15.943Z,1002.37
2022-09-05T15:12:17.667Z,1002.35
2022-09-05T15:12:19.698Z,1002.32
2022-09-05T15:12:21.744Z,1002.33
2022-09-05T15:12:50.417Z,1002.31
2022-09-05T15:13:45.909Z,1002.29
2022-09-05T15:14:44.903Z,1002.26
2022-09-05T15:15:44.862Z,1002.28
2022-09-05T15:16:45.968Z,1002.25
2022-09-05T15:17:44.876Z,1002.21
2022-09-05T15:18:44.830Z,1002.19
2022-09-05T15:19:53.274Z,1002.18
2022-09-05T15:20:45.848Z,1002.21
2022-09-05T15:21:44.808Z,1002.19
2022-09-05T15:22:47.900Z,1002.19
2022-09-05T15:23:46.153Z,1002.18
2022-09-05T15:24:44.784Z,1002.18
2022-09-05T15:25:44.766Z,1002.17
2022-09-05T15:26:44.749Z,1002.18
2022-09-05T15:27:44.728Z,1002.19
2022-09-05T15:28:44.722Z,1002.16
2022-09-05T15:29:44.727Z,1002.15
2022-09-05T15:30:44.740Z,1002.15
2022-09-05T15:31:44.688Z,1002.22
2022-09-05T15:32:50.210Z,1002.18
2022-09-05T15:33:45.663Z,1002.15
2022-09-05T15:34:44.698Z,1002.11
2022-09-05T15:35:44.641Z,1002.10
2022-09-05T15:36:44.639Z,1002.14
2022-09-05T15:37:44.620Z,1002.08
2022-09-05T15:38:54.476Z,1002.11
2022-09-05T15:39:45.694Z,1002.10
2022-09-05T15:40:44.589Z,1002.10
2022-09-05T15:41:44.582Z,1002.10
2022-09-05T15:42:44.587Z,1002.03
2022-09-05T15:43:44.551Z,1002.07
2022-09-05T15:45:06.426Z,1002.07
2022-09-05T15:45:45.595Z,1002.11
2022-09-05T15:46:44.521Z,1002.09
2022-09-05T15:47:44.543Z,1002.11
2022-09-05T15:48:44.509Z,1002.09
2022-09-05T15:49:44.486Z,1002.03
2022-09-05T15:50:44.496Z,1002.06
2022-09-05T15:51:44.476Z,1002.01
2022-09-05T15:52:44.507Z,1002.03
2022-09-05T15:53:44.470Z,1002.02
2022-09-05T15:54:46.413Z,1002.05
2022-09-05T15:55:44.427Z,1002.01
2022-09-05T15:56:44.416Z,1001.95
2022-09-05T15:57:44.406Z,1001.99
2022-09-05T15:58:53.502Z,1002.00
2022-09-05T15:59:45.397Z,1001.95
2022-09-05T16:00:48.113Z,1001.98
2022-09-05T16:01:59.506Z,1002.01
2022-09-05T16:02:45.459Z,1001.97
2022-09-05T16:05:35.587Z,1002.00
2022-09-05T16:06:59.855Z,1002.00
2022-09-05T16:10:28.409Z,1001.99
2022-09-05T16:10:29.649Z,1001.98
2022-09-05T16:10:37.274Z,1001.98
2022-09-05T16:10:37.975Z,1001.91
2022-09-05T16:10:50.570Z,1001.94
2022-09-05T16:11:14.758Z,1001.83
2022-09-05T16:12:45.239Z,1001.84
2022-09-05T16:13:53.484Z,1001.89
2022-09-05T16:15:23.149Z,1001.91
2022-09-05T16:20:33.254Z,1001.84
2022-09-05T16:23:17.854Z,1001.84
2022-09-05T16:23:19.170Z,1001.83
2022-09-05T16:23:20.947Z,1001.80
2022-09-05T16:23:24.620Z,1001.80
2022-09-05T16:23:27.402Z,1001.80
2022-09-05T16:23:27.597Z,1001.82
2022-09-05T16:23:31.033Z,1001.82
2022-09-05T16:23:45.654Z,1001.79
2022-09-05T16:24:59.069Z,1001.79
2022-09-05T16:25:45.127Z,1001.80
2022-09-05T16:26:44.093Z,1001.78
2022-09-05T16:27:44.232Z,1001.73
2022-09-05T16:28:44.073Z,1001.72
2022-09-05T16:29:44.100Z,1001.72
2022-09-05T16:30:44.058Z,1001.68
2022-09-05T16:31:44.150Z,1001.71
2022-09-05T16:32:51.026Z,1001.71
2022-09-05T16:33:45.046Z,1001.69
2022-09-05T16:34:44.025Z,1001.72
2022-09-05T16:35:44.034Z,1001.72
2022-09-05T16:36:44.022Z,1001.70
2022-09-05T16:37:44.036Z,1001.72
2022-09-05T16:38:49.220Z,1001.66
2022-09-05T16:39:45.056Z,1001.69
2022-09-05T16:40:43.950Z,1001.68
2022-09-05T16:41:43.945Z,1001.69
2022-09-05T16:42:46.974Z,1001.70
2022-09-05T16:43:43.936Z,1001.64